Terminal Aerodrome Forecast
Issued by NWS

Home | Current Version | Previous Version | Text Only | Print | Product List | Glossary On
Versions: 1 2 3 4 5 6 7 8 9 10 11 12 13 14 15 16
099
FTUS44 KTSA 311120
TAFXNA
TAF
KXNA 311120Z 3112/0112 00000KT 1/4SM FG VV001
     FM311300 VRB03KT 2SM BR OVC007
     FM311400 VRB03KT 5SM BR BKN015
     FM311500 15005KT P6SM BKN025
     FM311800 19006KT P6SM BKN045
     FM010000 19004KT P6SM VCTS SCT040 BKN080CB PROB30 0108/0112 4SM
      -TSRA BKN040CB=

USA.gov is the U.S. government's official web portal to all federal, state and local government web resources and services.